Terminal Aerodrome Forecast
Issued by NWS

Home | Current Version | Previous Version | Text Only | Print | Product List | Glossary On
Versions: 1 2 3 4 5 6 7 8 9 10 11 12 13 14 15 16 17 18 19 20 21 22 23 24 25 26
000
FTUS44 KLIX 301100 RRA
TAFHDC
TAF
KHDC 301139Z 3012/0112 00000KT P6SM SKC
     FM301400 08004KT P6SM SCT035
     FM302100 14005KT P6SM FEW040
     FM010100 00000KT P6SM SKC
      TEMPO 0108/0112 3SM BR=

USA.gov is the U.S. government's official web portal to all federal, state and local government web resources and services.